createdAt,value
2023-05-14T00:00:22.100Z,41.13
2023-05-14T00:02:51.765Z,40.86
2023-05-14T00:05:19.898Z,41.20
2023-05-14T00:07:47.984Z,41.06
2023-05-14T00:10:17.682Z,41.31
2023-05-14T00:12:45.675Z,41.40
2023-05-14T00:15:13.728Z,41.31
2023-05-14T00:17:42.483Z,41.13
2023-05-14T00:20:13.108Z,41.02
2023-05-14T00:22:41.438Z,41.25
2023-05-14T00:25:09.956Z,41.29
2023-05-14T00:27:38.768Z,40.79
2023-05-14T00:30:07.854Z,40.97
2023-05-14T00:32:35.930Z,40.85
2023-05-14T00:35:04.466Z,41.24
2023-05-14T00:37:33.809Z,40.97
2023-05-14T00:40:01.768Z,41.20
2023-05-14T00:42:29.855Z,41.16
2023-05-14T00:44:57.902Z,40.96
2023-05-14T00:47:25.826Z,41.31
2023-05-14T00:49:53.849Z,41.09
2023-05-14T00:52:22.238Z,41.15
2023-05-14T00:54:51.725Z,41.31
2023-05-14T00:57:19.707Z,41.43
2023-05-14T00:59:47.659Z,41.48
2023-05-14T01:02:15.740Z,41.46
2023-05-14T01:04:43.762Z,41.40
2023-05-14T01:07:13.876Z,41.46
2023-05-14T01:09:44.630Z,41.24
2023-05-14T01:12:18.565Z,41.04
2023-05-14T01:14:52.776Z,41.55
2023-05-14T01:17:21.877Z,41.32
2023-05-14T01:19:50.054Z,41.18
2023-05-14T01:22:19.547Z,41.13
2023-05-14T01:24:47.673Z,41.36
2023-05-14T01:27:18.713Z,41.59
2023-05-14T01:29:49.611Z,41.29
2023-05-14T01:32:17.784Z,41.33
2023-05-14T01:34:45.871Z,41.08
2023-05-14T01:37:14.025Z,41.37
2023-05-14T01:39:43.503Z,41.22
2023-05-14T01:42:11.694Z,41.11
2023-05-14T01:44:41.527Z,41.08
2023-05-14T01:47:09.624Z,41.17
2023-05-14T01:49:38.038Z,41.51
2023-05-14T01:52:06.481Z,41.49
2023-05-14T01:54:34.425Z,41.12
2023-05-14T01:57:03.932Z,41.26
2023-05-14T01:59:31.871Z,41.38
2023-05-14T02:02:01.525Z,41.13
2023-05-14T02:04:29.585Z,41.05
2023-05-14T02:06:57.595Z,41.30
2023-05-14T02:09:25.749Z,41.38
2023-05-14T02:11:53.919Z,41.13
2023-05-14T02:14:23.437Z,41.44
2023-05-14T02:16:52.054Z,41.53
2023-05-14T02:19:20.020Z,41.24
2023-05-14T02:21:49.035Z,41.46
2023-05-14T02:24:17.036Z,41.29
2023-05-14T02:26:44.960Z,41.55
2023-05-14T02:29:12.933Z,41.54
2023-05-14T02:31:42.291Z,41.18
2023-05-14T02:34:11.378Z,41.51
2023-05-14T02:36:39.392Z,41.50
2023-05-14T02:39:07.467Z,41.37
2023-05-14T02:41:35.602Z,41.26
2023-05-14T02:44:03.669Z,41.21
2023-05-14T02:46:32.331Z,41.23
2023-05-14T02:49:03.022Z,41.31
2023-05-14T02:51:31.051Z,41.13
2023-05-14T02:53:59.112Z,40.99
2023-05-14T02:56:27.604Z,41.44
2023-05-14T02:58:55.662Z,41.49
2023-05-14T03:01:24.296Z,41.32
2023-05-14T03:03:52.690Z,41.41
2023-05-14T03:06:23.355Z,40.96
2023-05-14T03:08:51.323Z,41.18
2023-05-14T03:11:19.414Z,40.96
2023-05-14T03:13:47.555Z,41.00
2023-05-14T03:16:15.575Z,41.41
2023-05-14T03:18:43.658Z,40.92
2023-05-14T03:21:11.680Z,40.93
2023-05-14T03:23:41.038Z,41.42
2023-05-14T03:26:09.004Z,40.93
2023-05-14T03:28:36.877Z,41.31
2023-05-14T03:31:04.996Z,41.19
2023-05-14T03:33:33.191Z,41.23
2023-05-14T03:36:01.187Z,41.29
2023-05-14T03:38:29.164Z,41.20
2023-05-14T03:40:58.868Z,40.96
2023-05-14T03:43:26.801Z,41.16
2023-05-14T03:45:54.725Z,40.85
2023-05-14T03:48:22.802Z,41.04
2023-05-14T03:50:51.329Z,41.09
2023-05-14T03:53:19.422Z,41.23
2023-05-14T03:55:47.504Z,41.02
2023-05-14T03:58:17.578Z,41.11
2023-05-14T04:00:45.757Z,40.90
2023-05-14T04:03:13.911Z,40.98
2023-05-14T04:05:42.040Z,41.26
2023-05-14T04:08:10.126Z,40.74
2023-05-14T04:10:38.227Z,40.82
2023-05-14T04:13:06.288Z,40.87
2023-05-14T04:15:39.401Z,41.05
2023-05-14T04:18:07.557Z,40.77
2023-05-14T04:20:35.600Z,41.00
2023-05-14T04:23:03.647Z,40.72
2023-05-14T04:25:31.668Z,40.76
2023-05-14T04:27:59.842Z,41.15
2023-05-14T04:30:27.819Z,41.17
2023-05-14T04:32:57.510Z,41.05
2023-05-14T04:35:25.902Z,41.11
2023-05-14T04:37:53.978Z,40.77
2023-05-14T04:40:23.063Z,41.01
2023-05-14T04:42:53.342Z,41.12
2023-05-14T04:45:21.411Z,41.06
2023-05-14T04:47:49.531Z,40.77
2023-05-14T04:50:19.238Z,41.03
2023-05-14T04:52:47.219Z,41.19
2023-05-14T04:55:15.223Z,40.85
2023-05-14T04:57:45.862Z,41.31
2023-05-14T05:00:14.787Z,41.12
2023-05-14T05:02:43.004Z,40.95
2023-05-14T05:05:11.414Z,41.01
2023-05-14T05:07:40.904Z,41.11
2023-05-14T05:10:10.156Z,41.06
2023-05-14T05:12:38.117Z,40.93
2023-05-14T05:15:06.704Z,41.04
2023-05-14T05:17:34.751Z,41.30
2023-05-14T05:20:02.751Z,41.09
2023-05-14T05:22:30.821Z,41.22
2023-05-14T05:25:00.216Z,41.20
2023-05-14T05:27:28.493Z,41.27
2023-05-14T05:29:56.617Z,41.12
2023-05-14T05:32:24.715Z,41.39
2023-05-14T05:34:53.070Z,41.20
2023-05-14T05:37:21.130Z,41.34
2023-05-14T05:39:49.510Z,41.21
2023-05-14T05:42:18.894Z,41.16
2023-05-14T05:44:46.931Z,41.23
2023-05-14T05:47:14.899Z,41.18
2023-05-14T05:49:42.875Z,41.36
2023-05-14T05:52:11.017Z,41.33
2023-05-14T05:54:39.929Z,41.36
2023-05-14T05:57:07.953Z,41.43
2023-05-14T05:59:37.457Z,41.29
2023-05-14T06:02:05.952Z,41.12
2023-05-14T06:04:34.058Z,41.41
2023-05-14T06:07:05.207Z,41.33
2023-05-14T06:09:33.327Z,41.16
2023-05-14T06:12:01.347Z,41.15
2023-05-14T06:14:29.370Z,41.15
2023-05-14T06:16:58.833Z,41.51
2023-05-14T06:19:26.908Z,41.65
2023-05-14T06:21:54.998Z,41.82
2023-05-14T06:24:22.996Z,41.70
2023-05-14T06:26:51.050Z,41.55
2023-05-14T06:29:19.181Z,41.69
2023-05-14T06:31:47.109Z,41.54
2023-05-14T06:34:16.446Z,41.42
2023-05-14T06:36:44.440Z,41.52
2023-05-14T06:39:12.607Z,41.64
2023-05-14T06:41:40.592Z,41.54
2023-05-14T06:44:08.697Z,41.48
2023-05-14T06:46:36.643Z,41.40
2023-05-14T06:49:04.661Z,41.34
2023-05-14T06:51:34.329Z,41.46
2023-05-14T06:54:03.103Z,41.47
2023-05-14T06:56:31.004Z,41.79
2023-05-14T06:58:58.920Z,41.44
2023-05-14T07:01:26.898Z,41.38
2023-05-14T07:03:55.076Z,41.80
2023-05-14T07:06:23.213Z,41.52
2023-05-14T07:08:53.433Z,41.47
2023-05-14T07:11:22.265Z,41.81
2023-05-14T07:13:50.378Z,41.89
2023-05-14T07:16:18.294Z,42.09
2023-05-14T07:18:46.630Z,41.73
2023-05-14T07:21:14.708Z,41.73
2023-05-14T07:23:42.695Z,42.03
2023-05-14T07:26:12.122Z,41.77
2023-05-14T07:28:40.085Z,42.05
2023-05-14T07:31:09.297Z,41.81
2023-05-14T07:33:37.481Z,41.86
2023-05-14T07:36:05.844Z,42.14
2023-05-14T07:38:33.921Z,42.36
2023-05-14T07:41:01.832Z,42.39
2023-05-14T07:43:31.259Z,42.16
2023-05-14T07:45:59.385Z,42.80
2023-05-14T07:48:27.430Z,42.78
2023-05-14T07:50:55.686Z,42.67
2023-05-14T07:53:23.672Z,42.56
2023-05-14T07:55:51.840Z,42.38
2023-05-14T07:58:19.890Z,42.45
2023-05-14T08:00:49.260Z,42.60
2023-05-14T08:03:17.342Z,42.35
2023-05-14T08:05:45.645Z,42.90
2023-05-14T08:08:13.598Z,42.45
2023-05-14T08:10:41.573Z,42.55
2023-05-14T08:13:09.667Z,42.59
2023-05-14T08:15:37.598Z,42.79
2023-05-14T08:18:07.056Z,42.67
2023-05-14T08:20:35.122Z,42.60
2023-05-14T08:23:03.207Z,42.67
2023-05-14T08:25:31.365Z,42.72
2023-05-14T08:27:59.938Z,42.92
2023-05-14T08:30:28.429Z,43.32
2023-05-14T08:32:56.570Z,43.21
2023-05-14T08:35:26.018Z,43.41
2023-05-14T08:37:54.004Z,43.25
2023-05-14T08:40:22.334Z,43.84
2023-05-14T08:42:50.572Z,43.78
2023-05-14T08:45:19.524Z,43.77
2023-05-14T08:47:48.814Z,43.91
2023-05-14T08:50:16.854Z,43.50
2023-05-14T08:52:46.144Z,44.49
2023-05-14T08:55:14.088Z,44.35
2023-05-14T08:57:42.126Z,43.74
2023-05-14T09:00:12.331Z,44.00
2023-05-14T09:02:41.139Z,44.21
2023-05-14T09:05:10.433Z,44.53
2023-05-14T09:07:38.325Z,44.72
2023-05-14T09:10:09.353Z,44.29
2023-05-14T09:12:37.328Z,44.47
2023-05-14T09:15:06.610Z,44.57
2023-05-14T09:17:34.737Z,44.90
2023-05-14T09:20:02.796Z,45.08
2023-05-14T09:22:31.835Z,45.22
2023-05-14T09:25:04.547Z,45.60
2023-05-14T09:27:34.071Z,45.65
2023-05-14T09:30:10.034Z,45.86
2023-05-14T09:32:39.210Z,45.95
2023-05-14T09:35:17.098Z,45.78
2023-05-14T09:37:46.332Z,46.10
2023-05-14T09:40:15.001Z,46.95
2023-05-14T09:42:44.406Z,46.84
2023-05-14T09:45:12.871Z,46.77
2023-05-14T09:47:40.933Z,46.46
2023-05-14T09:50:09.521Z,46.71
2023-05-14T09:52:37.895Z,47.26
2023-05-14T09:55:06.583Z,47.22
2023-05-14T09:57:34.721Z,46.93
2023-05-14T10:00:04.323Z,47.36
2023-05-14T10:02:37.568Z,47.54
2023-05-14T10:05:07.053Z,48.68
2023-05-14T10:07:37.823Z,48.63
2023-05-14T10:10:08.131Z,48.90
2023-05-14T10:12:36.379Z,48.80
2023-05-14T10:15:08.306Z,48.79
2023-05-14T10:17:36.321Z,48.52
2023-05-14T10:20:05.831Z,48.84
2023-05-14T10:22:35.437Z,48.96
2023-05-14T10:25:04.066Z,48.99
2023-05-14T10:27:32.086Z,48.56
2023-05-14T10:30:00.045Z,49.89
2023-05-14T10:32:33.040Z,49.69
2023-05-14T10:35:01.127Z,49.78
2023-05-14T10:37:29.297Z,49.81
2023-05-14T10:39:59.751Z,49.74
2023-05-14T10:42:28.332Z,49.89
2023-05-14T10:44:58.731Z,48.97
2023-05-14T10:47:27.324Z,49.39
2023-05-14T10:49:57.759Z,49.76
2023-05-14T10:52:25.835Z,49.26
2023-05-14T10:54:54.349Z,48.96
2023-05-14T10:57:23.463Z,49.30
2023-05-14T10:59:53.367Z,49.22
2023-05-14T11:02:25.673Z,49.58
2023-05-14T11:04:57.313Z,50.03
2023-05-14T11:07:26.405Z,49.68
2023-05-14T11:09:54.814Z,48.98
2023-05-14T11:12:22.836Z,48.99
2023-05-14T11:14:51.281Z,49.19
2023-05-14T11:17:19.309Z,48.31
2023-05-14T11:19:48.366Z,48.45
2023-05-14T11:22:19.215Z,48.53
2023-05-14T11:24:47.190Z,49.55
2023-05-14T11:27:15.102Z,49.28
2023-05-14T11:29:45.022Z,48.83
2023-05-14T11:32:13.116Z,48.81
2023-05-14T11:34:41.641Z,49.88
2023-05-14T11:37:10.151Z,50.45
2023-05-14T11:39:39.598Z,51.13
2023-05-14T11:42:11.957Z,51.32
2023-05-14T11:44:40.203Z,51.18
2023-05-14T11:47:08.336Z,51.33
2023-05-14T11:49:37.876Z,50.74
2023-05-14T11:52:06.878Z,50.77
2023-05-14T11:54:35.052Z,50.71
2023-05-14T11:57:08.447Z,51.22
2023-05-14T11:59:36.498Z,50.83
2023-05-14T12:02:04.935Z,50.62
2023-05-14T12:04:33.068Z,50.80
2023-05-14T12:07:01.441Z,50.81
2023-05-14T12:09:29.570Z,50.87
2023-05-14T12:11:57.500Z,50.86
2023-05-14T12:14:26.930Z,50.90
2023-05-14T12:16:55.007Z,50.61
2023-05-14T12:19:23.535Z,50.86
2023-05-14T12:21:52.935Z,50.33
2023-05-14T12:24:21.210Z,50.71
2023-05-14T12:26:49.645Z,50.21
2023-05-14T12:29:18.071Z,50.33
2023-05-14T12:31:51.265Z,50.34
2023-05-14T12:34:22.253Z,50.31
2023-05-14T12:36:50.308Z,50.43
2023-05-14T12:39:18.916Z,50.42
2023-05-14T12:41:47.006Z,50.25
2023-05-14T12:44:14.965Z,50.42
2023-05-14T12:46:43.004Z,50.13
2023-05-14T12:49:12.358Z,50.16
2023-05-14T12:51:40.286Z,50.65
2023-05-14T12:54:08.225Z,50.37
2023-05-14T12:56:37.769Z,50.19
2023-05-14T12:59:05.854Z,50.30
2023-05-14T13:01:33.824Z,50.29
2023-05-14T13:04:01.945Z,50.55
2023-05-14T13:06:31.761Z,50.69
2023-05-14T13:09:02.008Z,50.55
2023-05-14T13:11:31.820Z,51.09
2023-05-14T13:13:59.947Z,50.38
2023-05-14T13:16:28.444Z,50.29
2023-05-14T13:18:56.573Z,51.33
2023-05-14T13:21:24.621Z,51.25
2023-05-14T13:23:54.142Z,51.14
2023-05-14T13:26:22.562Z,50.99
2023-05-14T13:28:50.561Z,51.26
2023-05-14T13:31:18.544Z,51.51
2023-05-14T13:33:46.529Z,51.47
2023-05-14T13:36:15.042Z,51.50
2023-05-14T13:38:42.888Z,51.42
2023-05-14T13:41:12.331Z,51.31
2023-05-14T13:43:40.333Z,51.43
2023-05-14T13:46:08.327Z,51.45
2023-05-14T13:48:37.344Z,51.65
2023-05-14T13:51:05.258Z,51.32
2023-05-14T13:53:33.244Z,51.50
2023-05-14T13:56:01.885Z,51.64
2023-05-14T13:58:31.333Z,52.32
2023-05-14T14:00:59.331Z,51.50
2023-05-14T14:03:27.336Z,51.64
2023-05-14T14:05:55.641Z,51.82
2023-05-14T14:08:24.537Z,51.59
2023-05-14T14:10:54.670Z,51.32
2023-05-14T14:13:25.999Z,50.88
2023-05-14T14:15:55.324Z,51.14
2023-05-14T14:18:23.271Z,51.42
2023-05-14T14:20:51.316Z,51.16
2023-05-14T14:23:19.670Z,51.22
2023-05-14T14:25:47.737Z,50.99
2023-05-14T14:28:15.785Z,51.35
2023-05-14T14:30:43.937Z,51.40
2023-05-14T14:33:13.408Z,50.47
2023-05-14T14:35:41.464Z,50.06
2023-05-14T14:38:09.469Z,49.76
2023-05-14T14:40:37.425Z,49.82
2023-05-14T14:43:05.412Z,49.89
2023-05-14T14:45:35.993Z,49.36
2023-05-14T14:48:26.427Z,49.41
2023-05-14T14:50:54.461Z,49.36
2023-05-14T14:53:22.720Z,49.09
2023-05-14T14:55:50.798Z,48.91
2023-05-14T14:58:19.425Z,49.05
2023-05-14T15:00:47.690Z,48.62
2023-05-14T15:03:16.053Z,48.33
2023-05-14T15:05:45.699Z,48.37
2023-05-14T15:08:13.686Z,48.25
2023-05-14T15:10:41.824Z,48.16
2023-05-14T15:13:10.274Z,48.08
2023-05-14T15:15:38.616Z,47.79
2023-05-14T15:18:06.794Z,48.02
2023-05-14T15:20:35.018Z,47.89
2023-05-14T15:23:04.393Z,47.95
2023-05-14T15:25:32.610Z,47.95
2023-05-14T15:28:00.591Z,48.10
2023-05-14T15:30:28.633Z,47.74
2023-05-14T15:32:56.788Z,48.07
2023-05-14T15:35:25.177Z,47.83
2023-05-14T15:37:56.242Z,48.05
2023-05-14T15:40:25.897Z,47.58
2023-05-14T15:42:54.125Z,47.94
2023-05-14T15:45:36.163Z,47.87
2023-05-14T15:48:04.314Z,47.65
2023-05-14T15:50:32.346Z,47.89
2023-05-14T15:53:01.137Z,48.04
2023-05-14T15:55:30.703Z,47.71
2023-05-14T15:57:58.798Z,47.66
2023-05-14T16:00:27.122Z,47.83
2023-05-14T16:02:55.474Z,47.62
2023-05-14T16:05:23.437Z,47.44
2023-05-14T16:07:51.484Z,48.05
2023-05-14T16:10:21.065Z,47.60
2023-05-14T16:12:50.691Z,47.34
2023-05-14T16:15:18.859Z,47.16
2023-05-14T16:17:46.926Z,47.49
2023-05-14T16:20:14.997Z,47.29
2023-05-14T16:22:43.072Z,47.36
2023-05-14T16:25:11.166Z,47.46
2023-05-14T16:27:39.211Z,47.51
2023-05-14T16:30:10.046Z,48.11
2023-05-14T16:32:38.408Z,47.97
2023-05-14T16:35:06.921Z,47.92
2023-05-14T16:37:35.036Z,47.70
2023-05-14T16:40:03.246Z,47.67
2023-05-14T16:42:31.367Z,47.47
2023-05-14T16:44:59.387Z,47.78
2023-05-14T16:47:28.786Z,47.52
2023-05-14T16:49:56.963Z,47.53
2023-05-14T16:52:25.084Z,47.52
2023-05-14T16:54:53.088Z,47.52
2023-05-14T16:57:21.229Z,47.49
2023-05-14T16:59:49.325Z,47.61
2023-05-14T17:02:17.516Z,47.32
2023-05-14T17:04:46.922Z,47.52
2023-05-14T17:07:14.913Z,47.51
2023-05-14T17:09:42.963Z,47.67
2023-05-14T17:12:13.030Z,47.29
2023-05-14T17:14:41.116Z,47.45
2023-05-14T17:17:09.162Z,47.59
2023-05-14T17:19:37.198Z,48.36
2023-05-14T17:22:07.414Z,48.33
2023-05-14T17:24:36.643Z,49.96
2023-05-14T17:27:04.937Z,48.64
2023-05-14T17:29:32.987Z,49.04
2023-05-14T17:32:01.151Z,48.70
2023-05-14T17:34:29.236Z,48.64
2023-05-14T17:36:57.261Z,48.92
2023-05-14T17:39:26.695Z,49.25
2023-05-14T17:41:54.770Z,49.77
2023-05-14T17:44:22.864Z,50.00
2023-05-14T17:46:50.979Z,50.07
2023-05-14T17:49:19.103Z,50.06
2023-05-14T17:51:47.131Z,50.37
2023-05-14T17:54:15.104Z,49.95
2023-05-14T17:56:44.615Z,50.28
2023-05-14T17:59:12.892Z,50.83
2023-05-14T18:01:41.324Z,50.90
2023-05-14T18:04:09.605Z,50.95
2023-05-14T18:06:37.764Z,51.14
2023-05-14T18:09:05.910Z,50.89
2023-05-14T18:11:34.133Z,50.94
2023-05-14T18:14:03.485Z,51.06
2023-05-14T18:16:31.501Z,50.79
2023-05-14T18:19:00.411Z,50.83
2023-05-14T18:21:28.432Z,51.13
2023-05-14T18:23:57.197Z,50.66
2023-05-14T18:26:25.232Z,51.00
2023-05-14T18:28:53.267Z,51.10
2023-05-14T18:31:22.742Z,51.00
2023-05-14T18:33:50.898Z,50.90
2023-05-14T18:36:19.889Z,50.85
2023-05-14T18:38:47.930Z,51.03
2023-05-14T18:41:15.924Z,51.00
2023-05-14T18:43:43.948Z,50.97
2023-05-14T18:46:12.426Z,51.01
2023-05-14T18:48:41.852Z,50.72
2023-05-14T18:51:11.316Z,50.64
2023-05-14T18:53:39.412Z,50.83
2023-05-14T18:56:07.497Z,50.76
2023-05-14T18:58:35.485Z,50.80
2023-05-14T19:01:03.715Z,51.01
2023-05-14T19:03:31.847Z,51.15
2023-05-14T19:06:01.284Z,50.98
2023-05-14T19:08:29.329Z,51.04
2023-05-14T19:10:57.405Z,50.61
2023-05-14T19:13:28.596Z,51.13
2023-05-14T19:15:56.690Z,50.82
2023-05-14T19:18:24.584Z,50.99
2023-05-14T19:20:52.478Z,50.36
2023-05-14T19:23:22.126Z,50.97
2023-05-14T19:25:50.079Z,50.82
2023-05-14T19:28:19.924Z,50.62
2023-05-14T19:30:48.005Z,50.63
2023-05-14T19:33:16.038Z,50.32
2023-05-14T19:35:44.051Z,50.79
2023-05-14T19:38:12.094Z,50.52
2023-05-14T19:40:42.925Z,50.57
2023-05-14T19:43:12.026Z,50.33
2023-05-14T19:45:40.199Z,50.60
2023-05-14T19:48:08.176Z,50.50
2023-05-14T19:50:36.844Z,50.48
2023-05-14T19:53:04.791Z,50.39
2023-05-14T19:55:32.807Z,50.47
2023-05-14T19:58:02.135Z,50.58
2023-05-14T20:00:30.265Z,50.76
2023-05-14T20:02:59.753Z,50.36
2023-05-14T20:05:27.996Z,50.65
2023-05-14T20:07:55.968Z,50.08
2023-05-14T20:10:24.362Z,50.33
2023-05-14T20:12:52.427Z,50.02
2023-05-14T20:15:21.834Z,50.35
2023-05-14T20:17:49.837Z,50.28
2023-05-14T20:20:17.956Z,50.35
2023-05-14T20:22:46.004Z,50.19
2023-05-14T20:25:14.093Z,50.12
2023-05-14T20:27:42.323Z,49.99
2023-05-14T20:30:10.987Z,50.22
2023-05-14T20:32:40.510Z,50.11
2023-05-14T20:35:09.159Z,49.96
2023-05-14T20:37:38.002Z,49.90
2023-05-14T20:40:10.330Z,50.11
2023-05-14T20:42:38.457Z,49.76
2023-05-14T20:45:07.549Z,50.03
2023-05-14T20:47:35.835Z,49.88
2023-05-14T20:50:05.831Z,49.87
2023-05-14T20:52:33.733Z,49.38
2023-05-14T20:55:02.294Z,49.51
2023-05-14T20:57:30.517Z,49.28
2023-05-14T20:59:58.530Z,49.44
2023-05-14T21:02:26.644Z,49.22
2023-05-14T21:04:54.821Z,49.06
2023-05-14T21:07:24.228Z,48.78
2023-05-14T21:09:52.675Z,48.81
2023-05-14T21:12:20.803Z,49.18
2023-05-14T21:14:48.806Z,48.64
2023-05-14T21:17:16.773Z,48.77
2023-05-14T21:19:44.853Z,49.02
2023-05-14T21:22:13.673Z,49.17
2023-05-14T21:24:43.147Z,48.97
2023-05-14T21:27:11.216Z,49.33
2023-05-14T21:29:39.696Z,49.09
2023-05-14T21:32:08.402Z,49.06
2023-05-14T21:34:36.551Z,49.10
2023-05-14T21:37:04.714Z,49.46
2023-05-14T21:39:32.739Z,48.70
2023-05-14T21:42:02.117Z,48.71
2023-05-14T21:44:30.089Z,48.95
2023-05-14T21:46:58.067Z,48.92
2023-05-14T21:49:26.106Z,48.54
2023-05-14T21:51:54.642Z,48.67
2023-05-14T21:54:22.726Z,48.70
2023-05-14T21:56:50.707Z,48.26
2023-05-14T21:59:20.055Z,48.46
2023-05-14T22:04:18.923Z,48.52
2023-05-14T22:06:47.092Z,48.25
2023-05-14T22:09:15.216Z,48.01
2023-05-14T22:11:43.237Z,48.20
2023-05-14T22:14:11.223Z,48.33
2023-05-14T22:16:40.653Z,47.82
2023-05-14T22:19:08.782Z,48.17
2023-05-14T22:21:36.918Z,48.03
2023-05-14T22:24:05.302Z,47.82
2023-05-14T22:26:33.235Z,47.66
2023-05-14T22:29:01.120Z,47.98
2023-05-14T22:31:29.220Z,48.05
2023-05-14T22:33:58.737Z,47.80
2023-05-14T22:36:26.698Z,47.73
2023-05-14T22:38:54.814Z,48.02
2023-05-14T22:41:23.167Z,47.58
2023-05-14T22:43:52.000Z,47.88
2023-05-14T22:46:20.008Z,47.67
2023-05-14T22:48:49.291Z,47.78
2023-05-14T22:51:19.294Z,47.78
2023-05-14T22:53:47.507Z,47.71
2023-05-14T22:56:15.537Z,47.88
2023-05-14T22:58:43.648Z,47.91
2023-05-14T23:01:11.770Z,47.44
2023-05-14T23:03:39.844Z,47.42
2023-05-14T23:06:08.586Z,47.75
2023-05-14T23:08:38.006Z,47.45
2023-05-14T23:11:06.097Z,47.23
2023-05-14T23:13:34.351Z,46.99
2023-05-14T23:16:02.556Z,47.08
2023-05-14T23:18:30.864Z,47.41
2023-05-14T23:20:58.984Z,47.32
2023-05-14T23:23:27.073Z,47.25
2023-05-14T23:25:56.463Z,47.21
2023-05-14T23:28:24.510Z,47.09
2023-05-14T23:30:52.528Z,46.90
2023-05-14T23:33:20.580Z,47.00
2023-05-14T23:35:49.130Z,47.24
2023-05-14T23:38:17.302Z,47.10
2023-05-14T23:40:45.282Z,47.35
2023-05-14T23:43:15.074Z,47.33
2023-05-14T23:45:43.106Z,46.69
2023-05-14T23:48:11.169Z,46.95
2023-05-14T23:50:39.174Z,47.06
2023-05-14T23:53:07.985Z,46.80
2023-05-14T23:55:36.087Z,46.97
2023-05-14T23:58:04.181Z,46.86
